sensor_id;sensor_type;location;lat;lon;timestamp;pressure;altitude;pressure_sealevel;temperature;humidity
62152;BME280;48139;47.474;19.034;2023-04-05T03:47:18;100696.34;;;1.30;60.42
62152;BME280;48139;47.474;19.034;2023-04-05T03:50:23;100696.34;;;1.30;60.42
62152;BME280;48139;47.474;19.034;2023-04-05T03:53:27;100699.94;;;0.86;61.38
62152;BME280;48139;47.474;19.034;2023-04-05T03:56:31;100699.91;;;0.92;61.06
62152;BME280;48139;47.474;19.034;2023-04-05T03:59:35;100705.94;;;0.93;58.92
62152;BME280;48139;47.474;19.034;2023-04-05T04:02:48;100705.91;;;0.97;60.34
62152;BME280;48139;47.474;19.034;2023-04-05T04:05:53;100714.50;;;1.02;60.80
62152;BME280;48139;47.474;19.034;2023-04-05T04:08:56;100706.75;;;1.01;60.27
62152;BME280;48139;47.474;19.034;2023-04-05T04:12:02;100707.63;;;0.95;60.74
62152;BME280;48139;47.474;19.034;2023-04-05T04:15:05;100712.81;;;0.94;60.52
62152;BME280;48139;47.474;19.034;2023-04-05T04:18:11;100712.78;;;0.95;60.99
62152;BME280;48139;47.474;19.034;2023-04-05T04:21:14;100708.50;;;0.99;60.64
62152;BME280;48139;47.474;19.034;2023-04-05T04:24:19;100718.81;;;0.91;60.64
62152;BME280;48139;47.474;19.034;2023-04-05T04:27:22;100708.50;;;0.90;61.37
62152;BME280;48139;47.474;19.034;2023-04-05T04:30:32;100715.37;;;1.00;61.00
62152;BME280;48139;47.474;19.034;2023-04-05T04:33:41;100715.34;;;1.01;60.87
62152;BME280;48139;47.474;19.034;2023-04-05T04:36:46;100708.47;;;1.11;59.60
62152;BME280;48139;47.474;19.034;2023-04-05T04:39:50;100705.88;;;1.11;59.60
62152;BME280;48139;47.474;19.034;2023-04-05T04:42:54;100713.59;;;1.17;59.78
62152;BME280;48139;47.474;19.034;2023-04-05T04:46:00;100705.81;;;1.29;58.11
62152;BME280;48139;47.474;19.034;2023-04-05T04:49:09;100710.94;;;1.34;57.50
62152;BME280;48139;47.474;19.034;2023-04-05T04:52:12;100711.81;;;1.36;56.45
62152;BME280;48139;47.474;19.034;2023-04-05T04:55:15;100709.19;;;1.42;57.32
62152;BME280;48139;47.474;19.034;2023-04-05T04:58:20;100722.09;;;1.45;56.16
62152;BME280;48139;47.474;19.034;2023-04-05T05:01:24;100716.91;;;1.46;55.92
62152;BME280;48139;47.474;19.034;2023-04-05T05:04:28;100722.91;;;1.54;55.06
62152;BME280;48139;47.474;19.034;2023-04-05T05:07:31;100718.59;;;1.61;53.81
62152;BME280;48139;47.474;19.034;2023-04-05T05:10:33;100724.56;;;1.68;54.42
62152;BME280;48139;47.474;19.034;2023-04-05T05:13:37;100723.69;;;1.72;53.73
62152;BME280;48139;47.474;19.034;2023-04-05T05:16:40;100720.22;;;1.77;53.00
62152;BME280;48139;47.474;19.034;2023-04-05T05:19:44;100723.66;;;1.81;53.18
62152;BME280;48139;47.474;19.034;2023-04-05T05:22:46;100725.34;;;1.83;51.97
62152;BME280;48139;47.474;19.034;2023-04-05T05:25:50;100725.28;;;1.91;53.52
62152;BME280;48139;47.474;19.034;2023-04-05T05:28:52;100732.97;;;2.00;52.35
62152;BME280;48139;47.474;19.034;2023-04-05T05:31:56;100731.94;;;2.28;51.35
62152;BME280;48139;47.474;19.034;2023-04-05T05:34:58;100736.03;;;2.55;50.02
62152;BME280;48139;47.474;19.034;2023-04-05T05:38:01;100736.00;;;2.60;50.38
62152;BME280;48139;47.474;19.034;2023-04-05T05:41:04;100732.59;;;2.55;50.53
62152;BME280;48139;47.474;19.034;2023-04-05T05:44:07;100730.94;;;2.44;50.07
62152;BME280;48139;47.474;19.034;2023-04-05T05:47:09;100723.94;;;2.57;49.70
62152;BME280;48139;47.474;19.034;2023-04-05T05:50:12;100725.22;;;3.01;49.67
62152;BME280;48139;47.474;19.034;2023-04-05T05:53:14;100732.44;;;3.51;47.59
62152;BME280;48139;47.474;19.034;2023-04-05T05:56:18;100729.06;;;4.09;45.29
62152;BME280;48139;47.474;19.034;2023-04-05T05:59:20;100716.22;;;5.04;43.00
62152;BME280;48139;47.474;19.034;2023-04-05T06:02:24;100722.47;;;5.80;40.37
62152;BME280;48139;47.474;19.034;2023-04-05T06:05:27;100724.81;;;5.93;39.66
62152;BME280;48139;47.474;19.034;2023-04-05T06:08:30;100719.94;;;5.35;40.46
62152;BME280;48139;47.474;19.034;2023-04-05T06:11:33;100724.66;;;5.15;41.10
62152;BME280;48139;47.474;19.034;2023-04-05T06:14:40;100731.84;;;4.52;41.88
62152;BME280;48139;47.474;19.034;2023-04-05T06:17:42;100731.56;;;4.15;43.07
62152;BME280;48139;47.474;19.034;2023-04-05T06:20:46;100733.19;;;4.20;44.15
62152;BME280;48139;47.474;19.034;2023-04-05T06:23:49;100730.94;;;3.97;43.21
62152;BME280;48139;47.474;19.034;2023-04-05T06:26:51;100733.81;;;3.78;44.09
62152;BME280;48139;47.474;19.034;2023-04-05T06:29:54;100739.75;;;3.86;44.55
62152;BME280;48139;47.474;19.034;2023-04-05T06:32:57;100734.63;;;4.41;43.47
62152;BME280;48139;47.474;19.034;2023-04-05T06:35:59;100736.34;;;4.42;42.90
62152;BME280;48139;47.474;19.034;2023-04-05T06:39:02;100732.53;;;4.07;43.30
62152;BME280;48139;47.474;19.034;2023-04-05T06:42:05;100731.13;;;3.87;43.98
62152;BME280;48139;47.474;19.034;2023-04-05T06:45:11;100737.00;;;3.98;45.15
62152;BME280;48139;47.474;19.034;2023-04-05T06:48:14;100736.44;;;4.34;44.29
62152;BME280;48139;47.474;19.034;2023-04-05T06:51:17;100738.59;;;5.55;43.26
62152;BME280;48139;47.474;19.034;2023-04-05T06:54:19;100733.56;;;6.96;37.83
62152;BME280;48139;47.474;19.034;2023-04-05T06:57:24;100736.41;;;7.50;36.47
62152;BME280;48139;47.474;19.034;2023-04-05T07:00:27;100724.72;;;7.63;36.99
62152;BME280;48139;47.474;19.034;2023-04-05T07:03:30;100723.81;;;7.35;37.16
62152;BME280;48139;47.474;19.034;2023-04-05T07:06:34;100733.78;;;8.08;36.14
62152;BME280;48139;47.474;19.034;2023-04-05T07:09:40;100728.59;;;8.36;34.57
62152;BME280;48139;47.474;19.034;2023-04-05T07:12:42;100722.66;;;8.84;33.55
62152;BME280;48139;47.474;19.034;2023-04-05T07:15:45;100728.47;;;8.67;32.84
62152;BME280;48139;47.474;19.034;2023-04-05T07:18:48;100728.47;;;8.67;33.89
62152;BME280;48139;47.474;19.034;2023-04-05T07:21:51;100731.63;;;8.23;33.71
62152;BME280;48139;47.474;19.034;2023-04-05T07:24:55;100725.13;;;8.62;33.00
62152;BME280;48139;47.474;19.034;2023-04-05T07:27:57;100727.19;;;9.75;30.88
62152;BME280;48139;47.474;19.034;2023-04-05T07:31:01;100723.94;;;10.37;30.86
62152;BME280;48139;47.474;19.034;2023-04-05T07:34:04;100721.31;;;10.99;30.58
62152;BME280;48139;47.474;19.034;2023-04-05T07:37:06;100722.03;;;10.19;31.43
62152;BME280;48139;47.474;19.034;2023-04-05T07:40:10;100711.56;;;10.19;30.92
62152;BME280;48139;47.474;19.034;2023-04-05T07:43:14;100720.81;;;10.27;31.04
62152;BME280;48139;47.474;19.034;2023-04-05T07:46:17;100720.38;;;11.20;28.66
62152;BME280;48139;47.474;19.034;2023-04-05T07:49:26;100719.25;;;12.21;27.28
62152;BME280;48139;47.474;19.034;2023-04-05T07:52:29;100719.72;;;11.36;28.62
62152;BME280;48139;47.474;19.034;2023-04-05T07:55:31;100718.63;;;10.38;31.88
62152;BME280;48139;47.474;19.034;2023-04-05T07:58:35;100721.00;;;9.54;30.87
62152;BME280;48139;47.474;19.034;2023-04-05T08:01:41;100722.84;;;9.04;32.14
62152;BME280;48139;47.474;19.034;2023-04-05T08:04:44;100720.12;;;8.81;32.90
62152;BME280;48139;47.474;19.034;2023-04-05T08:07:47;100719.50;;;9.70;30.67
62152;BME280;48139;47.474;19.034;2023-04-05T08:10:50;100713.72;;;11.32;29.12
62152;BME280;48139;47.474;19.034;2023-04-05T08:13:52;100714.44;;;13.00;26.15
62152;BME280;48139;47.474;19.034;2023-04-05T08:16:55;100716.00;;;13.69;25.23
62152;BME280;48139;47.474;19.034;2023-04-05T08:19:58;100708.53;;;13.62;25.77
62152;BME280;48139;47.474;19.034;2023-04-05T08:23:01;100720.75;;;13.63;25.04
62152;BME280;48139;47.474;19.034;2023-04-05T08:26:04;100712.03;;;14.25;24.51
62152;BME280;48139;47.474;19.034;2023-04-05T08:29:07;100700.38;;;13.18;25.70
62152;BME280;48139;47.474;19.034;2023-04-05T08:32:09;100702.25;;;13.64;25.25
62152;BME280;48139;47.474;19.034;2023-04-05T08:35:12;100709.72;;;12.72;26.02
62152;BME280;48139;47.474;19.034;2023-04-05T08:38:15;100713.03;;;12.75;27.19
62152;BME280;48139;47.474;19.034;2023-04-05T08:41:20;100712.13;;;12.59;26.35
62152;BME280;48139;47.474;19.034;2023-04-05T08:44:24;100703.53;;;12.90;26.10
62152;BME280;48139;47.474;19.034;2023-04-05T08:47:28;100705.81;;;13.63;24.95
62152;BME280;48139;47.474;19.034;2023-04-05T08:50:32;100699.56;;;13.97;24.50
62152;BME280;48139;47.474;19.034;2023-04-05T08:53:34;100696.00;;;13.98;24.18
62152;BME280;48139;47.474;19.034;2023-04-05T08:56:37;100682.78;;;14.30;24.07
62152;BME280;48139;47.474;19.034;2023-04-05T08:59:40;100688.47;;;14.53;23.78
62152;BME280;48139;47.474;19.034;2023-04-05T09:02:53;100681.81;;;16.58;21.94
62152;BME280;48139;47.474;19.034;2023-04-05T09:05:58;100678.72;;;17.16;20.92
62152;BME280;48139;47.474;19.034;2023-04-05T09:09:05;100688.31;;;15.71;21.99
62152;BME280;48139;47.474;19.034;2023-04-05T09:12:10;100686.22;;;13.85;24.17
62152;BME280;48139;47.474;19.034;2023-04-05T09:15:13;100684.28;;;12.89;26.04
62152;BME280;48139;47.474;19.034;2023-04-05T09:18:16;100681.03;;;11.97;27.09
62152;BME280;48139;47.474;19.034;2023-04-05T09:21:28;100683.31;;;11.28;28.53
62152;BME280;48139;47.474;19.034;2023-04-05T09:24:36;100683.31;;;10.05;30.07
62152;BME280;48139;47.474;19.034;2023-04-05T09:27:53;100686.38;;;9.48;31.16
62152;BME280;48139;47.474;19.034;2023-04-05T09:30:59;100689.09;;;9.21;31.97
62152;BME280;48139;47.474;19.034;2023-04-05T09:34:03;100682.00;;;9.25;32.56
62152;BME280;48139;47.474;19.034;2023-04-05T09:37:13;100675.72;;;9.06;32.22
62152;BME280;48139;47.474;19.034;2023-04-05T09:40:16;100680.91;;;9.07;32.25
62152;BME280;48139;47.474;19.034;2023-04-05T09:43:38;100674.13;;;9.02;33.12
62152;BME280;48139;47.474;19.034;2023-04-05T09:46:41;100667.06;;;9.05;32.23
62152;BME280;48139;47.474;19.034;2023-04-05T09:49:45;100670.91;;;9.18;32.70
62152;BME280;48139;47.474;19.034;2023-04-05T09:52:48;100669.94;;;9.44;32.20
62152;BME280;48139;47.474;19.034;2023-04-05T09:55:51;100660.16;;;9.94;32.42
62152;BME280;48139;47.474;19.034;2023-04-05T09:59:01;100656.19;;;10.06;31.00
62152;BME280;48139;47.474;19.034;2023-04-05T10:02:05;100659.91;;;9.79;31.34
62152;BME280;48139;47.474;19.034;2023-04-05T10:05:10;100661.44;;;9.84;31.47
62152;BME280;48139;47.474;19.034;2023-04-05T10:08:17;100653.19;;;9.26;31.74
62152;BME280;48139;47.474;19.034;2023-04-05T10:11:20;100652.16;;;9.54;34.08
62152;BME280;48139;47.474;19.034;2023-04-05T10:14:23;100655.66;;;9.76;31.21
62152;BME280;48139;47.474;19.034;2023-04-05T10:17:50;100648.28;;;9.64;30.37
62152;BME280;48139;47.474;19.034;2023-04-05T10:20:57;100650.63;;;9.25;31.49
62152;BME280;48139;47.474;19.034;2023-04-05T10:24:17;100653.53;;;9.41;31.78
62152;BME280;48139;47.474;19.034;2023-04-05T10:27:29;100637.94;;;9.61;30.82
62152;BME280;48139;47.474;19.034;2023-04-05T10:30:40;100635.88;;;9.24;31.69
62152;BME280;48139;47.474;19.034;2023-04-05T10:33:46;100637.78;;;9.19;32.01
62152;BME280;48139;47.474;19.034;2023-04-05T10:36:57;100639.03;;;9.32;32.81
62152;BME280;48139;47.474;19.034;2023-04-05T10:40:02;100639.22;;;9.27;34.16
62152;BME280;48139;47.474;19.034;2023-04-05T10:43:14;100632.22;;;9.28;33.58
62152;BME280;48139;47.474;19.034;2023-04-05T10:46:21;100631.66;;;9.65;33.83
62152;BME280;48139;47.474;19.034;2023-04-05T10:49:38;100626.87;;;9.98;33.97
62152;BME280;48139;47.474;19.034;2023-04-05T10:52:41;100631.13;;;9.79;32.42
62152;BME280;48139;47.474;19.034;2023-04-05T10:55:44;100633.22;;;9.01;32.03
62152;BME280;48139;47.474;19.034;2023-04-05T10:58:48;100622.16;;;8.69;33.20
62152;BME280;48139;47.474;19.034;2023-04-05T11:01:53;100631.88;;;8.66;33.46
62152;BME280;48139;47.474;19.034;2023-04-05T11:04:56;100623.16;;;8.67;33.86
62152;BME280;48139;47.474;19.034;2023-04-05T11:08:07;100625.81;;;8.65;33.41
62152;BME280;48139;47.474;19.034;2023-04-05T11:11:12;100627.53;;;8.40;33.13
62152;BME280;48139;47.474;19.034;2023-04-05T11:14:36;100624.34;;;8.57;32.72
62152;BME280;48139;47.474;19.034;2023-04-05T11:17:42;100621.69;;;8.58;33.65
62152;BME280;48139;47.474;19.034;2023-04-05T11:27:08;100612.47;;;8.73;33.91
62152;BME280;48139;47.474;19.034;2023-04-05T11:30:11;100610.78;;;8.72;33.42
62152;BME280;48139;47.474;19.034;2023-04-05T11:33:35;100609.47;;;8.83;33.49
62152;BME280;48139;47.474;19.034;2023-04-05T11:36:42;100604.31;;;9.28;34.67
62152;BME280;48139;47.474;19.034;2023-04-05T11:39:47;100614.09;;;9.00;33.58
62152;BME280;48139;47.474;19.034;2023-04-05T11:43:00;100609.34;;;9.11;32.95
62152;BME280;48139;47.474;19.034;2023-04-05T11:46:04;100607.91;;;9.03;33.16
62152;BME280;48139;47.474;19.034;2023-04-05T11:49:07;100601.03;;;9.00;32.51
62152;BME280;48139;47.474;19.034;2023-04-05T11:52:14;100602.94;;;8.95;31.24
62152;BME280;48139;47.474;19.034;2023-04-05T11:55:25;100589.66;;;9.01;31.57
62152;BME280;48139;47.474;19.034;2023-04-05T11:58:28;100587.59;;;9.32;30.39
62152;BME280;48139;47.474;19.034;2023-04-05T12:01:31;100589.75;;;9.45;31.35
62152;BME280;48139;47.474;19.034;2023-04-05T12:04:35;100589.47;;;9.06;31.90
62152;BME280;48139;47.474;19.034;2023-04-05T12:07:38;100586.13;;;8.79;31.64
62152;BME280;48139;47.474;19.034;2023-04-05T12:10:40;100585.13;;;9.06;32.21
62152;BME280;48139;47.474;19.034;2023-04-05T12:13:44;100579.50;;;9.17;31.52
62152;BME280;48139;47.474;19.034;2023-04-05T12:16:47;100578.84;;;8.87;31.34
62152;BME280;48139;47.474;19.034;2023-04-05T12:19:51;100583.09;;;8.91;31.55
62152;BME280;48139;47.474;19.034;2023-04-05T12:22:55;100571.91;;;9.11;31.97
62152;BME280;48139;47.474;19.034;2023-04-05T12:25:58;100568.72;;;9.03;31.38
62152;BME280;48139;47.474;19.034;2023-04-05T12:29:03;100567.53;;;9.33;31.68
62152;BME280;48139;47.474;19.034;2023-04-05T12:32:05;100558.78;;;9.56;28.93
62152;BME280;48139;47.474;19.034;2023-04-05T12:38:14;100550.47;;;9.68;31.09
62152;BME280;48139;47.474;19.034;2023-04-05T12:41:29;100554.97;;;9.64;28.39
62152;BME280;48139;47.474;19.034;2023-04-05T12:44:32;100559.75;;;9.75;27.87
62152;BME280;48139;47.474;19.034;2023-04-05T12:47:47;100553.88;;;9.70;27.99
62152;BME280;48139;47.474;19.034;2023-04-05T12:50:50;100556.38;;;9.73;27.40
62152;BME280;48139;47.474;19.034;2023-04-05T12:53:55;100552.97;;;9.71;27.21
62152;BME280;48139;47.474;19.034;2023-04-05T12:57:00;100552.50;;;9.61;27.42
62152;BME280;48139;47.474;19.034;2023-04-05T13:00:06;100545.47;;;9.40;28.75
62152;BME280;48139;47.474;19.034;2023-04-05T13:03:15;100536.78;;;9.18;28.92
62152;BME280;48139;47.474;19.034;2023-04-05T13:06:19;100535.59;;;9.25;29.31
62152;BME280;48139;47.474;19.034;2023-04-05T13:09:22;100541.22;;;9.59;29.32
62152;BME280;48139;47.474;19.034;2023-04-05T13:12:25;100531.22;;;9.69;28.42
62152;BME280;48139;47.474;19.034;2023-04-05T13:15:27;100530.12;;;9.75;29.14
62152;BME280;48139;47.474;19.034;2023-04-05T13:18:30;100524.78;;;9.78;27.75
62152;BME280;48139;47.474;19.034;2023-04-05T13:21:32;100524.59;;;9.82;28.31
62152;BME280;48139;47.474;19.034;2023-04-05T13:24:35;100535.06;;;9.82;28.94
62152;BME280;48139;47.474;19.034;2023-04-05T13:27:38;100518.84;;;9.52;29.26
62152;BME280;48139;47.474;19.034;2023-04-05T13:30:41;100524.22;;;9.49;29.48
62152;BME280;48139;47.474;19.034;2023-04-05T13:33:43;100524.38;;;9.66;29.18
62152;BME280;48139;47.474;19.034;2023-04-05T13:36:46;100522.78;;;9.62;29.02
62152;BME280;48139;47.474;19.034;2023-04-05T13:39:50;100520.91;;;9.66;29.09
62152;BME280;48139;47.474;19.034;2023-04-05T13:42:53;100515.13;;;9.80;29.07
62152;BME280;48139;47.474;19.034;2023-04-05T13:45:55;100506.66;;;9.93;29.34
62152;BME280;48139;47.474;19.034;2023-04-05T13:48:58;100506.59;;;10.17;29.08
62152;BME280;48139;47.474;19.034;2023-04-05T13:52:01;100503.56;;;10.26;28.36
62152;BME280;48139;47.474;19.034;2023-04-05T13:55:03;100499.59;;;10.17;29.54
62152;BME280;48139;47.474;19.034;2023-04-05T13:58:06;100499.59;;;10.17;29.35
62152;BME280;48139;47.474;19.034;2023-04-05T14:01:09;100493.31;;;10.21;29.47
62152;BME280;48139;47.474;19.034;2023-04-05T14:04:12;100501.41;;;10.56;29.24
62152;BME280;48139;47.474;19.034;2023-04-05T14:07:15;100505.41;;;10.63;29.23
62152;BME280;48139;47.474;19.034;2023-04-05T14:10:18;100504.00;;;10.56;28.59
62152;BME280;48139;47.474;19.034;2023-04-05T14:13:22;100512.53;;;10.40;28.86
62152;BME280;48139;47.474;19.034;2023-04-05T14:16:25;100496.12;;;10.37;29.40
62152;BME280;48139;47.474;19.034;2023-04-05T14:19:28;100503.44;;;10.49;29.03
62152;BME280;48139;47.474;19.034;2023-04-05T14:22:31;100504.19;;;10.51;28.77
62152;BME280;48139;47.474;19.034;2023-04-05T14:25:33;100503.84;;;10.20;28.94
62152;BME280;48139;47.474;19.034;2023-04-05T14:28:36;100499.75;;;10.12;29.06
62152;BME280;48139;47.474;19.034;2023-04-05T14:31:39;100502.31;;;10.14;29.78
62152;BME280;48139;47.474;19.034;2023-04-05T14:34:41;100494.66;;;10.09;28.93
62152;BME280;48139;47.474;19.034;2023-04-05T14:37:44;100499.34;;;10.01;29.35
62152;BME280;48139;47.474;19.034;2023-04-05T14:40:47;100507.44;;;9.75;29.65
62152;BME280;48139;47.474;19.034;2023-04-05T14:43:49;100501.16;;;9.37;30.51
62152;BME280;48139;47.474;19.034;2023-04-05T14:46:52;100503.22;;;9.29;30.95
62152;BME280;48139;47.474;19.034;2023-04-05T14:49:55;100503.47;;;9.45;30.32
62152;BME280;48139;47.474;19.034;2023-04-05T14:52:58;100502.09;;;9.56;29.98
62152;BME280;48139;47.474;19.034;2023-04-05T14:56:02;100511.47;;;9.62;31.12
62152;BME280;48139;47.474;19.034;2023-04-05T14:59:04;100504.81;;;9.75;29.94
62152;BME280;48139;47.474;19.034;2023-04-05T15:02:07;100500.66;;;9.71;30.35
62152;BME280;48139;47.474;19.034;2023-04-05T15:05:11;100506.03;;;9.68;30.33
62152;BME280;48139;47.474;19.034;2023-04-05T15:08:13;100509.00;;;9.59;29.70
62152;BME280;48139;47.474;19.034;2023-04-05T15:11:17;100502.75;;;9.41;30.66
62152;BME280;48139;47.474;19.034;2023-04-05T15:14:19;100502.09;;;9.36;31.16
62152;BME280;48139;47.474;19.034;2023-04-05T15:17:33;100499.28;;;9.41;31.79
62152;BME280;48139;47.474;19.034;2023-04-05T15:20:37;100504.97;;;9.50;31.42
62152;BME280;48139;47.474;19.034;2023-04-05T15:23:40;100508.69;;;9.66;30.31
62152;BME280;48139;47.474;19.034;2023-04-05T15:26:43;100503.41;;;9.68;29.68
62152;BME280;48139;47.474;19.034;2023-04-05T15:29:45;100508.84;;;9.62;30.79
62152;BME280;48139;47.474;19.034;2023-04-05T15:32:48;100500.50;;;9.54;30.43
62152;BME280;48139;47.474;19.034;2023-04-05T15:35:51;100502.72;;;9.63;29.82
62152;BME280;48139;47.474;19.034;2023-04-05T15:38:53;100506.22;;;9.84;29.81
62152;BME280;48139;47.474;19.034;2023-04-05T15:41:56;100508.31;;;9.96;29.32
62152;BME280;48139;47.474;19.034;2023-04-05T15:44:59;100510.59;;;9.83;29.58
62152;BME280;48139;47.474;19.034;2023-04-05T15:48:02;100510.19;;;9.50;30.05
62152;BME280;48139;47.474;19.034;2023-04-05T15:51:04;100508.81;;;9.42;30.16
